createdAt,value
2019-05-05T00:00:14.361Z,0.81
2019-05-05T00:03:01.523Z,0.75
2019-05-05T00:05:36.962Z,0.99
2019-05-05T00:08:10.664Z,1.01
2019-05-05T00:11:09.571Z,1.05
2019-05-05T00:13:50.155Z,1.16
2019-05-05T00:16:44.382Z,1.14
2019-05-05T00:19:33.042Z,1.00
2019-05-05T00:22:06.364Z,0.89
2019-05-05T00:24:39.664Z,0.73
2019-05-05T00:27:14.811Z,0.65
2019-05-05T00:29:50.514Z,0.48
2019-05-05T00:32:24.526Z,0.40
2019-05-05T00:34:57.579Z,0.29
2019-05-05T00:37:30.208Z,0.21
2019-05-05T00:40:04.862Z,0.18
2019-05-05T00:42:38.212Z,0.13
2019-05-05T00:45:15.043Z,0.12
2019-05-05T00:47:54.641Z,0.18
2019-05-05T00:50:27.424Z,0.12
2019-05-05T00:53:00.941Z,0.01
2019-05-05T00:55:35.005Z,-0.08
2019-05-05T00:58:07.646Z,-0.17
2019-05-05T01:00:50.008Z,-0.20
2019-05-05T01:03:24.975Z,-0.19
2019-05-05T01:06:15.675Z,-0.15
2019-05-05T01:08:48.383Z,-0.17
2019-05-05T01:11:21.176Z,-0.24
2019-05-05T01:13:54.736Z,-0.28
2019-05-05T01:16:27.637Z,-0.32
2019-05-05T01:19:00.843Z,-0.35
2019-05-05T01:21:34.892Z,-0.33
2019-05-05T01:24:08.172Z,-0.36
2019-05-05T01:26:44.734Z,-0.47
2019-05-05T01:29:17.943Z,-0.55
2019-05-05T01:31:54.361Z,-0.56
2019-05-05T01:34:31.602Z,-0.46
2019-05-05T01:37:15.172Z,-0.41
2019-05-05T01:40:04.975Z,-0.34
2019-05-05T01:42:37.830Z,-0.29
2019-05-05T01:45:14.950Z,-0.44
2019-05-05T01:47:48.555Z,-0.57
2019-05-05T01:50:24.665Z,-0.65
2019-05-05T01:52:58.791Z,-0.59
2019-05-05T01:55:31.987Z,-0.61
2019-05-05T01:58:04.940Z,-0.80
2019-05-05T02:00:38.326Z,-0.93
2019-05-05T02:03:12.049Z,-1.05
2019-05-05T02:05:45.272Z,-1.11
2019-05-05T02:08:19.173Z,-1.11
2019-05-05T02:10:52.194Z,-1.03
2019-05-05T02:13:25.194Z,-0.97
2019-05-05T02:15:59.249Z,-0.92
2019-05-05T02:18:34.379Z,-0.94
2019-05-05T02:21:08.631Z,-0.84
2019-05-05T02:23:41.349Z,-0.86
2019-05-05T02:26:15.280Z,-0.80
2019-05-05T02:29:04.910Z,-0.76
2019-05-05T02:31:57.640Z,-0.78
2019-05-05T02:34:36.357Z,-0.87
2019-05-05T02:37:09.111Z,-0.90
2019-05-05T02:39:48.281Z,-0.84
2019-05-05T02:42:30.777Z,-0.80
2019-05-05T02:45:10.992Z,-0.75
2019-05-05T02:48:14.895Z,-0.65
2019-05-05T02:51:02.671Z,-0.52
2019-05-05T02:53:48.776Z,-0.48
2019-05-05T02:56:30.498Z,-0.41
2019-05-05T02:59:14.720Z,-0.34
2019-05-05T03:01:53.850Z,-0.27
2019-05-05T03:04:27.657Z,-0.04
2019-05-05T03:07:04.749Z,0.21
2019-05-05T03:09:38.940Z,0.26
2019-05-05T03:12:14.898Z,0.29
2019-05-05T03:14:53.694Z,0.42
2019-05-05T03:17:28.534Z,0.57
2019-05-05T03:20:04.057Z,0.56
2019-05-05T03:22:36.926Z,0.49
2019-05-05T03:25:09.634Z,0.52
2019-05-05T03:27:44.486Z,0.48
2019-05-05T03:30:17.908Z,0.48
2019-05-05T03:32:50.678Z,0.57
2019-05-05T03:35:24.246Z,0.69
2019-05-05T03:37:56.999Z,0.82
2019-05-05T03:40:34.493Z,0.90
2019-05-05T03:43:16.164Z,0.89
2019-05-05T03:45:53.973Z,0.86
2019-05-05T03:48:26.893Z,0.84
2019-05-05T03:50:59.726Z,0.83
2019-05-05T03:53:33.768Z,0.87
2019-05-05T03:56:06.645Z,0.83
2019-05-05T03:58:41.048Z,0.84
2019-05-05T04:01:43.980Z,0.92
2019-05-05T04:04:24.412Z,0.89
2019-05-05T04:06:57.558Z,0.87
2019-05-05T04:09:38.316Z,0.93
2019-05-05T04:12:13.720Z,0.90
2019-05-05T04:14:46.954Z,0.81
2019-05-05T04:17:28.258Z,0.73
2019-05-05T04:20:25.039Z,0.64
2019-05-05T04:22:58.444Z,0.55
2019-05-05T04:25:34.961Z,0.69
2019-05-05T04:28:07.916Z,0.77
2019-05-05T04:30:40.460Z,0.85
2019-05-05T04:33:14.516Z,0.98
2019-05-05T04:35:47.228Z,1.14
2019-05-05T04:38:20.254Z,1.33
2019-05-05T04:40:54.469Z,1.55
2019-05-05T04:43:27.335Z,1.79
2019-05-05T04:46:00.039Z,1.96
2019-05-05T04:48:43.996Z,2.12
2019-05-05T04:51:21.537Z,2.29
2019-05-05T04:54:04.412Z,2.43
2019-05-05T04:56:37.167Z,2.50
2019-05-05T04:59:09.744Z,2.56
2019-05-05T05:01:44.012Z,2.64
2019-05-05T05:04:28.775Z,2.74
2019-05-05T05:07:04.562Z,2.90
2019-05-05T05:09:37.474Z,2.95
2019-05-05T05:12:10.630Z,3.08
2019-05-05T05:14:44.189Z,3.19
2019-05-05T05:17:28.269Z,3.27
2019-05-05T05:20:03.765Z,3.29
2019-05-05T05:22:40.637Z,3.42
2019-05-05T05:25:14.591Z,3.50
2019-05-05T05:27:48.146Z,3.65
2019-05-05T05:30:25.448Z,3.79
2019-05-05T05:32:59.889Z,3.87
2019-05-05T05:35:33.648Z,3.93
2019-05-05T05:38:06.360Z,3.97
2019-05-05T05:40:49.119Z,4.01
2019-05-05T05:43:37.959Z,4.06
2019-05-05T05:46:30.112Z,4.08
2019-05-05T05:49:09.920Z,4.19
2019-05-05T05:51:44.598Z,4.29
2019-05-05T05:54:17.314Z,4.29
2019-05-05T05:56:53.756Z,4.28
2019-05-05T05:59:26.847Z,4.32
2019-05-05T06:02:09.826Z,4.36
2019-05-05T06:04:46.870Z,4.42
2019-05-05T06:07:21.284Z,4.51
2019-05-05T06:09:54.478Z,4.57
2019-05-05T06:12:27.043Z,4.74
2019-05-05T06:14:59.650Z,4.90
2019-05-05T06:17:34.416Z,4.97
2019-05-05T06:20:08.078Z,5.13
2019-05-05T06:22:40.641Z,5.24
2019-05-05T06:25:19.033Z,5.26
2019-05-05T06:27:54.105Z,5.23
2019-05-05T06:30:26.953Z,5.13
2019-05-05T06:33:00.180Z,5.07
2019-05-05T06:35:33.860Z,5.07
2019-05-05T06:38:06.923Z,5.09
2019-05-05T06:40:55.268Z,5.10
2019-05-05T06:43:51.602Z,5.21
2019-05-05T06:46:29.095Z,5.25
2019-05-05T06:49:01.732Z,5.27
2019-05-05T06:51:35.334Z,5.25
2019-05-05T06:54:08.491Z,5.24
2019-05-05T06:56:44.386Z,5.32
2019-05-05T06:59:19.354Z,5.54
2019-05-05T07:01:53.603Z,5.60
2019-05-05T07:04:28.461Z,5.68
2019-05-05T07:07:01.117Z,5.78
2019-05-05T07:09:34.864Z,5.80
2019-05-05T07:12:08.421Z,5.82
2019-05-05T07:14:41.895Z,5.87
2019-05-05T07:17:15.228Z,5.94
2019-05-05T07:19:47.971Z,6.21
2019-05-05T07:22:21.472Z,6.51
2019-05-05T07:24:54.385Z,7.06
2019-05-05T07:27:27.835Z,7.28
2019-05-05T07:30:04.763Z,7.29
2019-05-05T07:32:38.691Z,7.11
2019-05-05T07:35:24.692Z,6.93
2019-05-05T07:37:58.156Z,6.80
2019-05-05T07:40:34.490Z,6.82
2019-05-05T07:43:07.882Z,6.94
2019-05-05T07:45:44.561Z,6.97
2019-05-05T07:48:17.688Z,6.89
2019-05-05T07:51:01.227Z,6.89
2019-05-05T07:53:37.589Z,7.52
2019-05-05T07:56:14.475Z,7.79
2019-05-05T07:58:47.293Z,7.99
2019-05-05T08:01:20.050Z,8.56
2019-05-05T08:03:54.068Z,9.44
2019-05-05T08:06:29.547Z,9.61
2019-05-05T08:09:05.645Z,9.73
2019-05-05T08:11:39.134Z,9.68
2019-05-05T08:14:11.766Z,9.71
2019-05-05T08:16:49.908Z,9.75
2019-05-05T08:19:44.092Z,9.54
2019-05-05T08:22:28.678Z,9.43
2019-05-05T08:25:14.623Z,9.85
2019-05-05T08:28:09.333Z,10.11
2019-05-05T08:31:03.991Z,10.06
2019-05-05T08:33:38.010Z,9.84
2019-05-05T08:36:10.774Z,9.62
2019-05-05T08:38:44.799Z,9.29
2019-05-05T08:41:18.301Z,8.95
2019-05-05T08:43:51.648Z,8.75
2019-05-05T08:46:25.956Z,8.67
2019-05-05T08:49:01.778Z,8.59
2019-05-05T08:51:34.392Z,8.49
2019-05-05T08:54:07.917Z,8.50
2019-05-05T08:56:41.129Z,8.68
2019-05-05T08:59:18.756Z,8.83
2019-05-05T09:01:51.373Z,8.89
2019-05-05T09:04:24.636Z,8.88
2019-05-05T09:06:59.450Z,8.87
2019-05-05T09:09:33.661Z,8.67
2019-05-05T09:12:10.124Z,8.55
2019-05-05T09:14:45.049Z,8.47
2019-05-05T09:17:18.395Z,8.33
2019-05-05T09:19:53.686Z,8.37
2019-05-05T09:22:27.979Z,8.46
2019-05-05T09:25:13.703Z,8.51
2019-05-05T09:27:51.168Z,8.74
2019-05-05T09:30:39.371Z,9.28
2019-05-05T09:33:18.358Z,9.72
2019-05-05T09:35:54.152Z,9.97
2019-05-05T09:38:30.164Z,10.10
2019-05-05T09:41:03.857Z,10.33
2019-05-05T09:43:37.265Z,10.57
2019-05-05T09:46:15.868Z,10.72
2019-05-05T09:48:48.796Z,11.73
2019-05-05T09:51:24.271Z,12.06
2019-05-05T09:54:10.239Z,12.24
2019-05-05T09:56:48.995Z,12.71
2019-05-05T09:59:24.408Z,12.72
2019-05-05T10:02:01.155Z,12.26
2019-05-05T10:04:36.685Z,12.01
2019-05-05T10:07:09.306Z,11.66
2019-05-05T10:09:45.058Z,11.09
2019-05-05T10:12:17.751Z,10.94
2019-05-05T10:14:54.183Z,10.81
2019-05-05T10:17:27.390Z,10.82
2019-05-05T10:20:01.151Z,11.30
2019-05-05T10:22:34.382Z,11.55
2019-05-05T10:25:13.909Z,11.89
2019-05-05T10:27:48.292Z,12.12
2019-05-05T10:30:21.209Z,12.42
2019-05-05T10:32:55.143Z,12.48
2019-05-05T10:35:27.988Z,12.72
2019-05-05T10:38:00.730Z,12.42
2019-05-05T10:40:36.453Z,12.16
2019-05-05T10:43:10.803Z,11.97
2019-05-05T10:45:48.874Z,12.03
2019-05-05T10:48:24.122Z,12.06
2019-05-05T10:50:57.293Z,11.95
2019-05-05T10:53:31.556Z,12.28
2019-05-05T10:56:04.521Z,12.88
2019-05-05T10:58:40.594Z,13.25
2019-05-05T11:01:14.556Z,13.50
2019-05-05T11:03:47.650Z,13.57
2019-05-05T11:06:28.565Z,13.87
2019-05-05T11:09:07.791Z,13.96
2019-05-05T11:11:43.887Z,14.13
2019-05-05T11:14:19.202Z,13.17
2019-05-05T11:16:54.498Z,11.34
2019-05-05T11:19:29.194Z,9.93
2019-05-05T11:22:03.404Z,9.11
2019-05-05T11:24:40.040Z,8.68
2019-05-05T11:27:17.969Z,8.63
2019-05-05T11:30:04.127Z,8.56
2019-05-05T11:32:44.160Z,8.61
2019-05-05T11:35:20.579Z,8.88
2019-05-05T11:37:54.995Z,9.15
2019-05-05T11:40:32.601Z,9.45
2019-05-05T11:43:07.838Z,9.72
2019-05-05T11:45:43.689Z,9.90
2019-05-05T11:48:24.364Z,10.24
2019-05-05T11:50:59.084Z,10.59
2019-05-05T11:53:35.300Z,10.78
2019-05-05T11:56:11.870Z,11.16
2019-05-05T11:58:45.578Z,11.48
2019-05-05T12:01:18.532Z,11.96
2019-05-05T12:03:53.561Z,12.41
2019-05-05T12:06:27.729Z,12.58
2019-05-05T12:09:14.064Z,12.85
2019-05-05T12:11:47.043Z,13.37
2019-05-05T12:14:27.979Z,13.69
2019-05-05T12:17:04.553Z,13.54
2019-05-05T12:19:38.810Z,13.18
2019-05-05T12:22:19.785Z,12.77
2019-05-05T12:24:54.860Z,12.42
2019-05-05T12:27:37.434Z,12.15
2019-05-05T12:30:14.254Z,11.81
2019-05-05T12:32:48.072Z,11.49
2019-05-05T12:35:23.551Z,11.12
2019-05-05T12:37:56.586Z,10.80
2019-05-05T12:40:30.484Z,10.28
2019-05-05T12:43:03.729Z,9.65
2019-05-05T12:45:43.959Z,9.15
2019-05-05T12:48:34.465Z,8.95
2019-05-05T12:51:08.134Z,8.81
2019-05-05T12:53:41.102Z,8.81
2019-05-05T12:56:14.643Z,8.83
2019-05-05T12:58:49.816Z,8.83
2019-05-05T13:01:33.560Z,8.91
2019-05-05T13:04:06.818Z,9.19
2019-05-05T13:06:41.952Z,9.57
2019-05-05T13:09:16.497Z,9.86
2019-05-05T13:11:50.095Z,10.15
2019-05-05T13:14:23.024Z,10.42
2019-05-05T13:16:57.426Z,10.69
2019-05-05T13:19:52.887Z,10.97
2019-05-05T13:22:49.731Z,11.19
2019-05-05T13:25:28.722Z,11.38
2019-05-05T13:28:07.558Z,11.68
2019-05-05T13:30:43.800Z,11.95
2019-05-05T13:33:16.480Z,12.20
2019-05-05T13:35:51.078Z,12.90
2019-05-05T13:38:25.381Z,13.23
2019-05-05T13:41:01.214Z,13.45
2019-05-05T13:43:37.230Z,14.02
2019-05-05T13:46:16.628Z,14.45
2019-05-05T13:48:49.345Z,14.76
2019-05-05T13:51:24.083Z,14.69
2019-05-05T13:54:01.194Z,14.94
2019-05-05T13:56:35.748Z,15.18
2019-05-05T13:59:10.673Z,15.18
2019-05-05T14:01:46.846Z,15.55
2019-05-05T14:04:21.566Z,16.14
2019-05-05T14:06:58.004Z,16.77
2019-05-05T14:09:32.374Z,16.92
2019-05-05T14:12:10.940Z,16.57
2019-05-05T14:14:46.830Z,16.60
2019-05-05T14:17:46.616Z,16.74
2019-05-05T14:20:19.940Z,16.70
2019-05-05T14:22:54.914Z,16.51
2019-05-05T14:25:30.482Z,16.68
2019-05-05T14:28:04.537Z,16.37
2019-05-05T14:30:59.728Z,16.38
2019-05-05T14:33:57.006Z,15.95
2019-05-05T14:36:57.734Z,15.58
2019-05-05T14:39:38.437Z,15.96
2019-05-05T14:42:17.976Z,16.15
2019-05-05T14:44:54.347Z,16.06
2019-05-05T14:47:28.512Z,15.46
2019-05-05T14:50:04.575Z,15.79
2019-05-05T14:52:44.359Z,15.40
2019-05-05T14:55:18.863Z,14.93
2019-05-05T14:57:56.050Z,15.11
2019-05-05T15:00:33.695Z,15.70
2019-05-05T15:03:08.514Z,16.03
2019-05-05T15:05:55.563Z,16.13
2019-05-05T15:08:35.599Z,15.60
2019-05-05T15:11:16.570Z,15.15
2019-05-05T15:13:49.302Z,14.96
2019-05-05T15:16:24.544Z,14.54
2019-05-05T15:19:07.407Z,14.00
2019-05-05T15:21:41.848Z,13.46
2019-05-05T15:24:15.001Z,13.45
2019-05-05T15:26:52.706Z,13.42
2019-05-05T15:29:31.670Z,13.05
2019-05-05T15:32:04.928Z,12.63
2019-05-05T15:34:41.217Z,12.41
2019-05-05T15:38:24.243Z,12.35
2019-05-05T15:41:05.026Z,12.51
2019-05-05T15:43:40.637Z,12.75
2019-05-05T15:46:16.025Z,13.12
2019-05-05T15:48:51.425Z,13.61
2019-05-05T15:51:25.666Z,14.09
2019-05-05T15:54:06.942Z,14.25
2019-05-05T15:57:02.331Z,14.49
2019-05-05T15:59:38.979Z,14.68
2019-05-05T16:02:18.601Z,14.63
2019-05-05T16:04:55.484Z,14.71
2019-05-05T16:07:28.235Z,14.57
2019-05-05T16:10:07.961Z,14.22
2019-05-05T16:12:41.703Z,13.85
2019-05-05T16:15:41.494Z,13.64
2019-05-05T16:18:23.902Z,13.50
2019-05-05T16:21:07.746Z,12.96
2019-05-05T16:23:46.100Z,12.47
2019-05-05T16:26:19.468Z,12.02
2019-05-05T16:28:57.149Z,11.72
2019-05-05T16:31:30.639Z,11.48
2019-05-05T16:34:07.221Z,11.38
2019-05-05T16:36:44.425Z,11.36
2019-05-05T16:39:18.427Z,11.34
2019-05-05T16:41:53.505Z,11.29
2019-05-05T16:44:33.994Z,11.23
2019-05-05T16:47:08.494Z,11.21
2019-05-05T16:49:44.751Z,11.17
2019-05-05T16:52:27.625Z,11.17
2019-05-05T16:55:18.738Z,11.30
2019-05-05T16:57:55.104Z,11.38
2019-05-05T17:00:28.548Z,11.42
2019-05-05T17:03:04.188Z,11.50
2019-05-05T17:05:39.982Z,11.59
2019-05-05T17:08:16.170Z,11.74
2019-05-05T17:10:53.999Z,11.72
2019-05-05T17:13:50.098Z,11.58
2019-05-05T17:16:55.446Z,11.48
2019-05-05T17:19:47.832Z,11.44
2019-05-05T17:22:47.497Z,11.36
2019-05-05T17:25:20.201Z,11.32
2019-05-05T17:27:54.548Z,11.33
2019-05-05T17:30:34.227Z,11.28
2019-05-05T17:33:07.475Z,11.20
2019-05-05T17:35:41.676Z,11.20
2019-05-05T17:38:15.933Z,11.26
2019-05-05T17:40:55.463Z,11.23
2019-05-05T17:43:41.014Z,11.16
2019-05-05T17:46:49.789Z,11.05
2019-05-05T17:49:57.276Z,10.90
2019-05-05T17:52:50.786Z,10.82
2019-05-05T17:55:44.349Z,10.76
2019-05-05T17:58:17.878Z,10.61
2019-05-05T18:00:57.137Z,10.51
2019-05-05T18:03:31.016Z,10.29
2019-05-05T18:06:24.243Z,10.10
2019-05-05T18:09:19.771Z,9.95
2019-05-05T18:12:20.824Z,9.77
2019-05-05T18:14:56.982Z,9.65
2019-05-05T18:17:37.534Z,9.58
2019-05-05T18:20:11.224Z,9.45
2019-05-05T18:22:46.175Z,9.44
2019-05-05T18:25:20.557Z,9.45
2019-05-05T18:27:58.453Z,9.45
2019-05-05T18:30:33.453Z,9.52
2019-05-05T18:33:09.645Z,9.51
2019-05-05T18:35:45.435Z,9.55
2019-05-05T18:38:18.975Z,9.50
2019-05-05T18:40:54.689Z,9.46
2019-05-05T18:43:40.596Z,9.42
2019-05-05T18:46:13.694Z,9.33
2019-05-05T18:48:48.839Z,9.29
2019-05-05T18:51:24.129Z,9.20
2019-05-05T18:53:57.464Z,9.08
2019-05-05T18:56:34.586Z,8.96
2019-05-05T18:59:08.540Z,8.81
2019-05-05T19:01:54.953Z,8.70
2019-05-05T19:04:42.718Z,8.56
2019-05-05T19:07:24.701Z,8.39
2019-05-05T19:10:00.105Z,8.30
2019-05-05T19:12:34.711Z,8.19
2019-05-05T19:15:13.604Z,8.09
2019-05-05T19:17:47.557Z,7.97
2019-05-05T19:20:31.123Z,7.98
2019-05-05T19:23:06.796Z,7.95
2019-05-05T19:25:39.584Z,7.91
2019-05-05T19:28:14.219Z,7.83
2019-05-05T19:30:49.686Z,7.72
2019-05-05T19:33:24.607Z,7.64
2019-05-05T19:36:00.435Z,7.57
2019-05-05T19:38:37.309Z,7.48
2019-05-05T19:41:14.381Z,7.33
2019-05-05T19:43:54.695Z,7.14
2019-05-05T19:46:43.998Z,6.93
2019-05-05T19:49:19.574Z,6.69
2019-05-05T19:51:54.127Z,6.47
2019-05-05T19:54:27.694Z,6.29
2019-05-05T19:57:03.837Z,6.14
2019-05-05T19:59:44.697Z,5.96
2019-05-05T20:02:23.613Z,5.82
2019-05-05T20:05:04.273Z,5.73
2019-05-05T20:07:39.715Z,5.72
2019-05-05T20:10:14.725Z,5.69
2019-05-05T20:12:54.012Z,5.64
2019-05-05T20:15:37.043Z,5.59
2019-05-05T20:18:11.163Z,5.59
2019-05-05T20:20:44.658Z,5.66
2019-05-05T20:23:18.414Z,5.69
2019-05-05T20:25:53.732Z,5.63
2019-05-05T20:28:30.860Z,5.58
2019-05-05T20:31:05.899Z,5.49
2019-05-05T20:33:47.819Z,5.43
2019-05-05T20:36:25.511Z,5.40
2019-05-05T20:38:59.893Z,5.31
2019-05-05T20:41:36.201Z,5.17
2019-05-05T20:44:09.271Z,5.06
2019-05-05T20:49:40.353Z,5.06
2019-05-05T20:52:14.136Z,5.00
2019-05-05T20:54:46.962Z,4.91
2019-05-05T20:57:21.926Z,4.93
2019-05-05T20:59:55.378Z,4.87
2019-05-05T21:02:28.589Z,4.93
2019-05-05T21:05:14.604Z,5.04
2019-05-05T21:07:49.180Z,5.17
2019-05-05T21:10:24.163Z,5.31
2019-05-05T21:12:57.582Z,5.55
2019-05-05T21:15:30.403Z,5.66
2019-05-05T21:18:04.983Z,5.62
2019-05-05T21:20:40.446Z,5.53
2019-05-05T21:23:24.688Z,5.43
2019-05-05T21:26:05.123Z,5.39
2019-05-05T21:28:39.715Z,5.28
2019-05-05T21:31:17.651Z,5.27
2019-05-05T21:33:51.920Z,5.30
2019-05-05T21:36:25.635Z,5.35
2019-05-05T21:38:58.293Z,5.30
2019-05-05T21:41:33.950Z,5.19
2019-05-05T21:44:07.792Z,5.17
2019-05-05T21:46:40.563Z,5.18
2019-05-05T21:49:14.242Z,5.23
2019-05-05T21:51:58.298Z,5.25
2019-05-05T21:54:38.563Z,5.26
2019-05-05T21:57:30.748Z,5.27
2019-05-05T22:00:11.046Z,5.21
2019-05-05T22:02:45.248Z,5.07
2019-05-05T22:05:20.193Z,4.93
2019-05-05T22:07:56.694Z,4.76
2019-05-05T22:10:31.411Z,4.63
2019-05-05T22:13:04.980Z,4.56
2019-05-05T22:15:38.285Z,4.40
2019-05-05T22:18:14.439Z,4.28
2019-05-05T22:20:59.723Z,4.11
2019-05-05T22:23:34.019Z,3.97
2019-05-05T22:26:15.230Z,3.87
2019-05-05T22:28:49.884Z,3.73
2019-05-05T22:31:23.816Z,3.61
2019-05-05T22:33:56.608Z,3.53
2019-05-05T22:36:29.984Z,3.44
2019-05-05T22:39:05.808Z,3.29
2019-05-05T22:41:39.444Z,3.15
2019-05-05T22:44:14.588Z,3.00
2019-05-05T22:46:48.480Z,2.90
2019-05-05T22:49:23.951Z,2.77
2019-05-05T22:51:57.366Z,2.58
2019-05-05T22:54:30.671Z,2.52
2019-05-05T22:57:04.706Z,2.51
2019-05-05T22:59:38.213Z,2.45
2019-05-05T23:02:11.040Z,2.36
2019-05-05T23:04:57.571Z,2.29
2019-05-05T23:07:31.793Z,2.16
2019-05-05T23:10:11.197Z,2.02
2019-05-05T23:12:47.410Z,1.89
2019-05-05T23:15:25.219Z,1.81
2019-05-05T23:18:07.897Z,1.78
2019-05-05T23:20:57.359Z,1.79
2019-05-05T23:23:39.296Z,1.72
2019-05-05T23:26:14.960Z,1.82
2019-05-05T23:28:49.036Z,1.79
2019-05-05T23:31:23.971Z,1.73
2019-05-05T23:33:56.952Z,1.66
2019-05-05T23:36:34.006Z,1.55
2019-05-05T23:39:10.261Z,1.40
2019-05-05T23:41:43.073Z,1.38
2019-05-05T23:44:15.983Z,1.25
2019-05-05T23:46:49.186Z,1.20
2019-05-05T23:49:25.141Z,1.15
2019-05-05T23:52:00.245Z,1.07
2019-05-05T23:54:34.183Z,1.02
2019-05-05T23:57:06.905Z,1.05
2019-05-05T23:59:44.077Z,1.13
